sensor_id;sensor_type;location;lat;lon;timestamp;pressure;altitude;pressure_sealevel;temperature;humidity
28448;BME280;15675;52.870;-1.416;2023-06-24T00:01:15;101649.16;;;22.20;79.95
28448;BME280;15675;52.870;-1.416;2023-06-24T00:03:41;101656.06;;;22.26;79.14
28448;BME280;15675;52.870;-1.416;2023-06-24T00:06:12;101648.47;;;21.85;79.62
28448;BME280;15675;52.870;-1.416;2023-06-24T00:08:52;101656.53;;;21.79;82.39
28448;BME280;15675;52.870;-1.416;2023-06-24T00:11:27;101658.81;;;21.61;82.45
28448;BME280;15675;52.870;-1.416;2023-06-24T00:13:52;101657.31;;;21.51;84.52
28448;BME280;15675;52.870;-1.416;2023-06-24T00:16:18;101659.97;;;21.49;85.32
28448;BME280;15675;52.870;-1.416;2023-06-24T00:18:51;101659.72;;;21.26;86.24
28448;BME280;15675;52.870;-1.416;2023-06-24T00:21:18;101655.63;;;20.78;89.55
28448;BME280;15675;52.870;-1.416;2023-06-24T00:23:44;101653.06;;;20.75;92.15
28448;BME280;15675;52.870;-1.416;2023-06-24T00:26:10;101655.66;;;20.76;94.07
28448;BME280;15675;52.870;-1.416;2023-06-24T00:28:35;101647.06;;;20.69;94.91
28448;BME280;15675;52.870;-1.416;2023-06-24T00:31:01;101652.94;;;20.42;97.02
28448;BME280;15675;52.870;-1.416;2023-06-24T00:33:28;101649.19;;;20.13;99.28
28448;BME280;15675;52.870;-1.416;2023-06-24T00:35:53;101656.94;;;20.19;100.00
28448;BME280;15675;52.870;-1.416;2023-06-24T00:38:21;101660.94;;;19.96;100.00
28448;BME280;15675;52.870;-1.416;2023-06-24T00:40:47;101655.41;;;20.09;100.00
28448;BME280;15675;52.870;-1.416;2023-06-24T00:43:12;101657.03;;;20.53;100.00
28448;BME280;15675;52.870;-1.416;2023-06-24T00:45:39;101658.91;;;20.50;98.80
28448;BME280;15675;52.870;-1.416;2023-06-24T00:48:04;101661.31;;;20.20;98.87
28448;BME280;15675;52.870;-1.416;2023-06-24T00:50:30;101661.13;;;19.87;100.00
28448;BME280;15675;52.870;-1.416;2023-06-24T00:52:56;101657.31;;;19.55;100.00
28448;BME280;15675;52.870;-1.416;2023-06-24T00:55:21;101662.31;;;19.69;100.00
28448;BME280;15675;52.870;-1.416;2023-06-24T00:57:49;101662.91;;;19.85;100.00
28448;BME280;15675;52.870;-1.416;2023-06-24T01:00:20;101660.81;;;19.57;100.00
28448;BME280;15675;52.870;-1.416;2023-06-24T01:02:47;101665.97;;;19.62;100.00
28448;BME280;15675;52.870;-1.416;2023-06-24T01:05:14;101658.69;;;19.75;100.00
28448;BME280;15675;52.870;-1.416;2023-06-24T01:07:40;101667.94;;;19.51;100.00
28448;BME280;15675;52.870;-1.416;2023-06-24T01:10:07;101671.34;;;19.57;100.00
28448;BME280;15675;52.870;-1.416;2023-06-24T01:12:34;101676.28;;;19.74;100.00
28448;BME280;15675;52.870;-1.416;2023-06-24T01:15:02;101671.88;;;19.75;100.00
28448;BME280;15675;52.870;-1.416;2023-06-24T01:17:44;101661.03;;;19.92;100.00
28448;BME280;15675;52.870;-1.416;2023-06-24T01:23:34;101667.56;;;20.16;100.00
28448;BME280;15675;52.870;-1.416;2023-06-24T01:37:12;101671.44;;;19.99;100.00
28448;BME280;15675;52.870;-1.416;2023-06-24T01:40:12;101666.81;;;20.09;100.00
28448;BME280;15675;52.870;-1.416;2023-06-24T01:42:45;101662.97;;;20.26;100.00
28448;BME280;15675;52.870;-1.416;2023-06-24T01:45:29;101664.50;;;20.34;100.00
28448;BME280;15675;52.870;-1.416;2023-06-24T01:48:06;101661.13;;;20.28;100.00
28448;BME280;15675;52.870;-1.416;2023-06-24T01:50:33;101661.97;;;20.31;100.00
28448;BME280;15675;52.870;-1.416;2023-06-24T01:53:05;101651.66;;;20.19;100.00
28448;BME280;15675;52.870;-1.416;2023-06-24T01:55:32;101657.88;;;20.16;100.00
28448;BME280;15675;52.870;-1.416;2023-06-24T01:57:59;101660.53;;;20.15;100.00
28448;BME280;15675;52.870;-1.416;2023-06-24T02:00:27;101652.63;;;20.15;100.00
28448;BME280;15675;52.870;-1.416;2023-06-24T02:02:54;101652.81;;;19.62;100.00
28448;BME280;15675;52.870;-1.416;2023-06-24T02:05:21;101650.91;;;19.70;100.00
28448;BME280;15675;52.870;-1.416;2023-06-24T02:07:48;101649.19;;;19.67;100.00
28448;BME280;15675;52.870;-1.416;2023-06-24T02:10:15;101652.28;;;19.91;100.00
28448;BME280;15675;52.870;-1.416;2023-06-24T02:12:44;101661.88;;;19.94;100.00
28448;BME280;15675;52.870;-1.416;2023-06-24T02:15:12;101660.63;;;20.12;100.00
28448;BME280;15675;52.870;-1.416;2023-06-24T02:17:38;101664.16;;;20.09;100.00
28448;BME280;15675;52.870;-1.416;2023-06-24T02:20:06;101650.28;;;20.03;100.00
28448;BME280;15675;52.870;-1.416;2023-06-24T02:22:35;101645.16;;;20.35;100.00
28448;BME280;15675;52.870;-1.416;2023-06-24T02:25:02;101652.84;;;20.45;100.00
28448;BME280;15675;52.870;-1.416;2023-06-24T02:27:28;101665.41;;;20.33;100.00
28448;BME280;15675;52.870;-1.416;2023-06-24T02:29:55;101655.59;;;20.40;100.00
28448;BME280;15675;52.870;-1.416;2023-06-24T02:32:21;101658.25;;;20.40;100.00
28448;BME280;15675;52.870;-1.416;2023-06-24T02:34:47;101651.34;;;20.34;100.00
28448;BME280;15675;52.870;-1.416;2023-06-24T02:37:13;101651.88;;;20.49;100.00
28448;BME280;15675;52.870;-1.416;2023-06-24T02:39:38;101652.59;;;20.18;100.00
28448;BME280;15675;52.870;-1.416;2023-06-24T02:42:10;101654.63;;;20.04;100.00
28448;BME280;15675;52.870;-1.416;2023-06-24T02:44:36;101652.16;;;19.96;100.00
28448;BME280;15675;52.870;-1.416;2023-06-24T02:47:02;101653.06;;;19.95;100.00
28448;BME280;15675;52.870;-1.416;2023-06-24T02:49:28;101641.03;;;19.83;100.00
28448;BME280;15675;52.870;-1.416;2023-06-24T02:51:55;101647.56;;;19.60;100.00
28448;BME280;15675;52.870;-1.416;2023-06-24T02:54:20;101640.63;;;19.56;100.00
28448;BME280;15675;52.870;-1.416;2023-06-24T02:56:46;101631.97;;;19.51;100.00
28448;BME280;15675;52.870;-1.416;2023-06-24T02:59:14;101629.25;;;19.56;100.00
28448;BME280;15675;52.870;-1.416;2023-06-24T03:01:39;101640.56;;;19.59;100.00
28448;BME280;15675;52.870;-1.416;2023-06-24T03:04:10;101642.44;;;19.54;100.00
28448;BME280;15675;52.870;-1.416;2023-06-24T03:06:36;101630.91;;;19.61;100.00
28448;BME280;15675;52.870;-1.416;2023-06-24T03:09:02;101629.94;;;19.65;100.00
28448;BME280;15675;52.870;-1.416;2023-06-24T03:11:29;101627.59;;;19.50;100.00
28448;BME280;15675;52.870;-1.416;2023-06-24T03:13:54;101626.72;;;19.51;100.00
28448;BME280;15675;52.870;-1.416;2023-06-24T03:16:20;101628.38;;;19.54;100.00
28448;BME280;15675;52.870;-1.416;2023-06-24T03:18:45;101625.75;;;19.54;100.00
28448;BME280;15675;52.870;-1.416;2023-06-24T03:21:11;101630.38;;;19.41;100.00
28448;BME280;15675;52.870;-1.416;2023-06-24T03:23:37;101623.97;;;19.56;100.00
28448;BME280;15675;52.870;-1.416;2023-06-24T03:26:02;101628.09;;;19.69;100.00
28448;BME280;15675;52.870;-1.416;2023-06-24T03:28:30;101624.06;;;19.51;100.00
28448;BME280;15675;52.870;-1.416;2023-06-24T03:30:57;101627.38;;;19.62;100.00
28448;BME280;15675;52.870;-1.416;2023-06-24T03:33:23;101624.16;;;19.45;100.00
28448;BME280;15675;52.870;-1.416;2023-06-24T03:35:50;101631.00;;;19.57;100.00
28448;BME280;15675;52.870;-1.416;2023-06-24T03:38:16;101633.50;;;19.63;100.00
28448;BME280;15675;52.870;-1.416;2023-06-24T03:40:41;101625.44;;;19.71;100.00
28448;BME280;15675;52.870;-1.416;2023-06-24T03:43:07;101622.69;;;19.77;100.00
28448;BME280;15675;52.870;-1.416;2023-06-24T03:45:32;101617.41;;;20.19;100.00
28448;BME280;15675;52.870;-1.416;2023-06-24T03:47:58;101625.66;;;20.04;100.00
28448;BME280;15675;52.870;-1.416;2023-06-24T03:50:23;101624.38;;;19.82;100.00
28448;BME280;15675;52.870;-1.416;2023-06-24T03:52:49;101617.47;;;19.74;100.00
28448;BME280;15675;52.870;-1.416;2023-06-24T03:55:14;101620.91;;;19.79;100.00
28448;BME280;15675;52.870;-1.416;2023-06-24T03:57:40;101618.16;;;19.83;100.00
28448;BME280;15675;52.870;-1.416;2023-06-24T04:00:06;101630.94;;;19.60;100.00
28448;BME280;15675;52.870;-1.416;2023-06-24T04:02:43;101627.31;;;19.65;100.00
28448;BME280;15675;52.870;-1.416;2023-06-24T04:05:09;101635.00;;;19.75;100.00
28448;BME280;15675;52.870;-1.416;2023-06-24T04:07:35;101620.91;;;19.79;100.00
28448;BME280;15675;52.870;-1.416;2023-06-24T04:10:03;101638.47;;;19.80;100.00
28448;BME280;15675;52.870;-1.416;2023-06-24T04:12:37;101632.72;;;20.02;100.00
28448;BME280;15675;52.870;-1.416;2023-06-24T04:15:04;101625.25;;;20.22;100.00
28448;BME280;15675;52.870;-1.416;2023-06-24T04:17:30;101632.06;;;20.32;100.00
28448;BME280;15675;52.870;-1.416;2023-06-24T04:19:56;101625.09;;;20.30;100.00
28448;BME280;15675;52.870;-1.416;2023-06-24T04:22:21;101631.09;;;20.37;100.00
28448;BME280;15675;52.870;-1.416;2023-06-24T04:24:47;101629.00;;;20.51;100.00
28448;BME280;15675;52.870;-1.416;2023-06-24T04:27:13;101637.31;;;20.72;100.00
28448;BME280;15675;52.870;-1.416;2023-06-24T04:29:38;101644.94;;;20.84;100.00
28448;BME280;15675;52.870;-1.416;2023-06-24T04:32:04;101633.28;;;21.27;100.00
28448;BME280;15675;52.870;-1.416;2023-06-24T04:34:29;101643.44;;;21.43;100.00
28448;BME280;15675;52.870;-1.416;2023-06-24T04:36:55;101645.16;;;21.44;100.00
28448;BME280;15675;52.870;-1.416;2023-06-24T04:39:21;101646.72;;;21.84;100.00
28448;BME280;15675;52.870;-1.416;2023-06-24T04:41:46;101641.09;;;21.95;100.00
28448;BME280;15675;52.870;-1.416;2023-06-24T04:44:13;101643.78;;;21.93;100.00
28448;BME280;15675;52.870;-1.416;2023-06-24T04:46:39;101643.22;;;21.83;100.00
28448;BME280;15675;52.870;-1.416;2023-06-24T04:49:06;101645.81;;;21.53;100.00
28448;BME280;15675;52.870;-1.416;2023-06-24T04:51:31;101641.84;;;21.02;100.00
28448;BME280;15675;52.870;-1.416;2023-06-24T04:53:57;101637.94;;;21.50;100.00
28448;BME280;15675;52.870;-1.416;2023-06-24T04:56:23;101623.81;;;21.53;100.00
28448;BME280;15675;52.870;-1.416;2023-06-24T04:58:49;101632.34;;;21.63;100.00
28448;BME280;15675;52.870;-1.416;2023-06-24T05:01:15;101618.69;;;21.47;100.00
28448;BME280;15675;52.870;-1.416;2023-06-24T05:03:40;101629.41;;;21.41;100.00
28448;BME280;15675;52.870;-1.416;2023-06-24T05:06:06;101631.59;;;21.58;100.00
28448;BME280;15675;52.870;-1.416;2023-06-24T05:08:31;101619.72;;;21.41;100.00
28448;BME280;15675;52.870;-1.416;2023-06-24T05:10:57;101626.25;;;21.26;100.00
28448;BME280;15675;52.870;-1.416;2023-06-24T05:13:23;101636.31;;;21.45;100.00
28448;BME280;15675;52.870;-1.416;2023-06-24T05:15:48;101629.78;;;21.91;100.00
28448;BME280;15675;52.870;-1.416;2023-06-24T05:18:14;101632.72;;;21.47;100.00
28448;BME280;15675;52.870;-1.416;2023-06-24T05:20:40;101637.53;;;21.33;100.00
28448;BME280;15675;52.870;-1.416;2023-06-24T05:23:05;101644.50;;;21.68;100.00
28448;BME280;15675;52.870;-1.416;2023-06-24T05:25:31;101633.66;;;22.09;100.00
28448;BME280;15675;52.870;-1.416;2023-06-24T05:27:57;101635.75;;;22.28;100.00
28448;BME280;15675;52.870;-1.416;2023-06-24T05:30:22;101637.06;;;21.83;100.00
28448;BME280;15675;52.870;-1.416;2023-06-24T05:32:48;101645.56;;;22.22;100.00
28448;BME280;15675;52.870;-1.416;2023-06-24T05:35:13;101642.88;;;22.24;100.00
28448;BME280;15675;52.870;-1.416;2023-06-24T05:37:39;101642.34;;;22.43;100.00
28448;BME280;15675;52.870;-1.416;2023-06-24T05:40:05;101642.03;;;22.23;100.00
28448;BME280;15675;52.870;-1.416;2023-06-24T05:42:32;101640.66;;;22.40;100.00
28448;BME280;15675;52.870;-1.416;2023-06-24T05:44:57;101641.66;;;22.91;100.00
28448;BME280;15675;52.870;-1.416;2023-06-24T05:47:23;101635.66;;;23.13;100.00
28448;BME280;15675;52.870;-1.416;2023-06-24T05:49:48;101640.75;;;22.92;100.00
28448;BME280;15675;52.870;-1.416;2023-06-24T05:52:14;101634.34;;;22.99;100.00
28448;BME280;15675;52.870;-1.416;2023-06-24T05:54:39;101628.44;;;22.91;100.00
28448;BME280;15675;52.870;-1.416;2023-06-24T05:57:05;101640.25;;;22.24;100.00
28448;BME280;15675;52.870;-1.416;2023-06-24T05:59:32;101637.41;;;22.30;100.00
28448;BME280;15675;52.870;-1.416;2023-06-24T06:01:57;101632.41;;;22.51;100.00
28448;BME280;15675;52.870;-1.416;2023-06-24T06:04:23;101638.44;;;22.54;100.00
28448;BME280;15675;52.870;-1.416;2023-06-24T06:06:49;101649.28;;;22.47;100.00
28448;BME280;15675;52.870;-1.416;2023-06-24T06:09:14;101648.88;;;22.59;100.00
28448;BME280;15675;52.870;-1.416;2023-06-24T06:11:40;101647.63;;;22.98;100.00
28448;BME280;15675;52.870;-1.416;2023-06-24T06:14:05;101641.84;;;22.58;100.00
28448;BME280;15675;52.870;-1.416;2023-06-24T06:16:31;101639.38;;;22.23;100.00
28448;BME280;15675;52.870;-1.416;2023-06-24T06:18:56;101644.34;;;22.04;100.00
28448;BME280;15675;52.870;-1.416;2023-06-24T06:21:22;101664.38;;;21.82;100.00
28448;BME280;15675;52.870;-1.416;2023-06-24T06:23:47;101671.38;;;22.14;100.00
28448;BME280;15675;52.870;-1.416;2023-06-24T06:26:13;101667.75;;;21.87;100.00
28448;BME280;15675;52.870;-1.416;2023-06-24T06:28:39;101663.72;;;22.05;100.00
28448;BME280;15675;52.870;-1.416;2023-06-24T06:31:05;101665.22;;;21.52;100.00
28448;BME280;15675;52.870;-1.416;2023-06-24T06:33:31;101677.28;;;21.61;100.00
28448;BME280;15675;52.870;-1.416;2023-06-24T06:35:56;101676.16;;;22.01;100.00
28448;BME280;15675;52.870;-1.416;2023-06-24T06:38:22;101678.91;;;21.67;100.00
28448;BME280;15675;52.870;-1.416;2023-06-24T06:40:47;101669.97;;;22.02;100.00
28448;BME280;15675;52.870;-1.416;2023-06-24T06:43:13;101676.78;;;21.80;100.00
28448;BME280;15675;52.870;-1.416;2023-06-24T06:45:38;101676.09;;;22.03;100.00
28448;BME280;15675;52.870;-1.416;2023-06-24T06:48:05;101686.00;;;21.96;100.00
28448;BME280;15675;52.870;-1.416;2023-06-24T06:50:33;101676.38;;;21.94;100.00
28448;BME280;15675;52.870;-1.416;2023-06-24T06:52:59;101688.00;;;21.57;100.00
28448;BME280;15675;52.870;-1.416;2023-06-24T06:55:26;101687.09;;;21.89;100.00
28448;BME280;15675;52.870;-1.416;2023-06-24T06:57:52;101688.09;;;21.85;100.00
28448;BME280;15675;52.870;-1.416;2023-06-24T07:00:18;101691.31;;;21.63;100.00
28448;BME280;15675;52.870;-1.416;2023-06-24T07:02:43;101684.66;;;21.81;100.00
28448;BME280;15675;52.870;-1.416;2023-06-24T07:05:09;101691.63;;;21.84;100.00
28448;BME280;15675;52.870;-1.416;2023-06-24T07:07:37;101692.34;;;21.91;100.00
28448;BME280;15675;52.870;-1.416;2023-06-24T07:10:03;101695.34;;;22.08;100.00
28448;BME280;15675;52.870;-1.416;2023-06-24T07:12:29;101688.06;;;22.16;100.00
28448;BME280;15675;52.870;-1.416;2023-06-24T07:14:54;101693.22;;;22.51;100.00
28448;BME280;15675;52.870;-1.416;2023-06-24T07:17:20;101676.41;;;22.23;100.00
28448;BME280;15675;52.870;-1.416;2023-06-24T07:19:45;101687.78;;;22.55;100.00
28448;BME280;15675;52.870;-1.416;2023-06-24T07:22:11;101690.53;;;22.81;100.00
28448;BME280;15675;52.870;-1.416;2023-06-24T07:24:37;101687.19;;;22.74;100.00
28448;BME280;15675;52.870;-1.416;2023-06-24T07:27:02;101687.03;;;22.52;100.00
28448;BME280;15675;52.870;-1.416;2023-06-24T07:29:28;101681.31;;;22.36;100.00
28448;BME280;15675;52.870;-1.416;2023-06-24T07:31:53;101686.97;;;22.82;100.00
28448;BME280;15675;52.870;-1.416;2023-06-24T07:34:19;101687.03;;;22.79;100.00
28448;BME280;15675;52.870;-1.416;2023-06-24T07:36:44;101687.44;;;22.95;100.00
28448;BME280;15675;52.870;-1.416;2023-06-24T07:39:10;101691.34;;;23.09;100.00
28448;BME280;15675;52.870;-1.416;2023-06-24T07:41:35;101682.31;;;23.17;100.00
28448;BME280;15675;52.870;-1.416;2023-06-24T07:44:01;101693.16;;;23.34;100.00
28448;BME280;15675;52.870;-1.416;2023-06-24T07:46:27;101689.28;;;22.91;100.00
28448;BME280;15675;52.870;-1.416;2023-06-24T07:48:53;101698.38;;;23.10;100.00
28448;BME280;15675;52.870;-1.416;2023-06-24T07:51:18;101689.63;;;22.80;100.00
28448;BME280;15675;52.870;-1.416;2023-06-24T07:53:44;101695.13;;;22.74;100.00
28448;BME280;15675;52.870;-1.416;2023-06-24T07:56:10;101702.94;;;22.50;100.00
28448;BME280;15675;52.870;-1.416;2023-06-24T07:58:35;101698.72;;;22.43;100.00
28448;BME280;15675;52.870;-1.416;2023-06-24T08:01:03;101706.66;;;22.43;100.00
28448;BME280;15675;52.870;-1.416;2023-06-24T08:03:29;101707.72;;;22.08;100.00
28448;BME280;15675;52.870;-1.416;2023-06-24T08:05:55;101711.88;;;22.46;100.00
28448;BME280;15675;52.870;-1.416;2023-06-24T08:08:21;101713.69;;;22.44;100.00
28448;BME280;15675;52.870;-1.416;2023-06-24T08:10:47;101713.78;;;22.41;100.00
28448;BME280;15675;52.870;-1.416;2023-06-24T08:13:13;101713.59;;;22.75;100.00
28448;BME280;15675;52.870;-1.416;2023-06-24T08:15:39;101719.31;;;22.62;100.00
28448;BME280;15675;52.870;-1.416;2023-06-24T08:18:04;101725.38;;;22.37;100.00
28448;BME280;15675;52.870;-1.416;2023-06-24T08:20:30;101716.78;;;22.87;100.00
28448;BME280;15675;52.870;-1.416;2023-06-24T08:22:55;101711.78;;;22.49;100.00
28448;BME280;15675;52.870;-1.416;2023-06-24T08:25:21;101722.16;;;22.84;100.00
28448;BME280;15675;52.870;-1.416;2023-06-24T08:27:46;101725.91;;;23.05;100.00
28448;BME280;15675;52.870;-1.416;2023-06-24T08:30:14;101721.09;;;23.18;100.00
28448;BME280;15675;52.870;-1.416;2023-06-24T08:32:43;101718.97;;;23.29;100.00
28448;BME280;15675;52.870;-1.416;2023-06-24T08:35:09;101712.38;;;23.14;100.00
28448;BME280;15675;52.870;-1.416;2023-06-24T08:37:38;101713.16;;;23.44;100.00
28448;BME280;15675;52.870;-1.416;2023-06-24T08:40:04;101713.66;;;23.29;100.00
28448;BME280;15675;52.870;-1.416;2023-06-24T08:42:30;101716.28;;;23.56;100.00
28448;BME280;15675;52.870;-1.416;2023-06-24T08:44:56;101706.81;;;23.49;100.00
28448;BME280;15675;52.870;-1.416;2023-06-24T08:47:23;101707.72;;;23.73;100.00
28448;BME280;15675;52.870;-1.416;2023-06-24T08:49:53;101699.91;;;24.41;100.00
28448;BME280;15675;52.870;-1.416;2023-06-24T08:52:25;101703.38;;;24.43;100.00
28448;BME280;15675;52.870;-1.416;2023-06-24T08:54:52;101703.38;;;23.95;100.00
28448;BME280;15675;52.870;-1.416;2023-06-24T08:57:20;101707.19;;;23.63;100.00
28448;BME280;15675;52.870;-1.416;2023-06-24T08:59:46;101708.59;;;23.73;100.00
28448;BME280;15675;52.870;-1.416;2023-06-24T09:02:11;101706.41;;;23.85;100.00
28448;BME280;15675;52.870;-1.416;2023-06-24T09:04:40;101707.84;;;23.95;100.00
28448;BME280;15675;52.870;-1.416;2023-06-24T09:07:06;101696.69;;;23.60;100.00
28448;BME280;15675;52.870;-1.416;2023-06-24T09:09:31;101699.31;;;23.61;100.00
28448;BME280;15675;52.870;-1.416;2023-06-24T09:11:59;101691.44;;;23.58;100.00
28448;BME280;15675;52.870;-1.416;2023-06-24T09:14:26;101697.94;;;23.50;100.00
28448;BME280;15675;52.870;-1.416;2023-06-24T09:16:54;101702.31;;;23.76;100.00
28448;BME280;15675;52.870;-1.416;2023-06-24T09:19:23;101704.25;;;23.71;100.00
28448;BME280;15675;52.870;-1.416;2023-06-24T09:21:50;101701.44;;;23.75;100.00
28448;BME280;15675;52.870;-1.416;2023-06-24T09:24:18;101697.31;;;24.39;100.00
28448;BME280;15675;52.870;-1.416;2023-06-24T09:26:44;101686.34;;;24.49;100.00
28448;BME280;15675;52.870;-1.416;2023-06-24T09:29:13;101688.47;;;24.85;100.00
28448;BME280;15675;52.870;-1.416;2023-06-24T09:31:49;101686.31;;;25.15;100.00
28448;BME280;15675;52.870;-1.416;2023-06-24T09:34:18;101685.97;;;25.02;96.03
28448;BME280;15675;52.870;-1.416;2023-06-24T09:36:45;101685.84;;;25.05;94.10
28448;BME280;15675;52.870;-1.416;2023-06-24T09:39:16;101694.81;;;25.23;93.97
28448;BME280;15675;52.870;-1.416;2023-06-24T09:41:42;101693.78;;;25.27;92.23
28448;BME280;15675;52.870;-1.416;2023-06-24T09:44:11;101681.59;;;25.01;91.77
28448;BME280;15675;52.870;-1.416;2023-06-24T09:46:37;101681.84;;;24.95;94.77
28448;BME280;15675;52.870;-1.416;2023-06-24T09:49:04;101678.34;;;24.72;96.89
28448;BME280;15675;52.870;-1.416;2023-06-24T09:51:33;101671.84;;;24.57;96.03
28448;BME280;15675;52.870;-1.416;2023-06-24T09:54:05;101669.09;;;24.60;96.50
28448;BME280;15675;52.870;-1.416;2023-06-24T09:56:32;101669.03;;;24.62;94.70
28448;BME280;15675;52.870;-1.416;2023-06-24T09:58:59;101677.59;;;24.91;96.11
28448;BME280;15675;52.870;-1.416;2023-06-24T10:01:24;101666.19;;;25.31;94.61
28448;BME280;15675;52.870;-1.416;2023-06-24T10:03:50;101675.41;;;25.64;92.76
28448;BME280;15675;52.870;-1.416;2023-06-24T10:06:16;101669.41;;;25.18;90.37
28448;BME280;15675;52.870;-1.416;2023-06-24T10:08:41;101670.03;;;25.02;91.38
28448;BME280;15675;52.870;-1.416;2023-06-24T10:11:07;101665.75;;;25.20;91.26
28448;BME280;15675;52.870;-1.416;2023-06-24T10:13:34;101664.59;;;25.05;90.58
28448;BME280;15675;52.870;-1.416;2023-06-24T10:15:59;101671.25;;;25.15;91.61
28448;BME280;15675;52.870;-1.416;2023-06-24T10:20:56;101662.53;;;25.34;94.42
28448;BME280;15675;52.870;-1.416;2023-06-24T10:23:22;101657.91;;;25.17;91.63
28448;BME280;15675;52.870;-1.416;2023-06-24T10:25:48;101665.44;;;25.48;94.99
28448;BME280;15675;52.870;-1.416;2023-06-24T10:28:14;101673.00;;;25.58;93.95
28448;BME280;15675;52.870;-1.416;2023-06-24T10:30:39;101666.59;;;25.62;92.63
28448;BME280;15675;52.870;-1.416;2023-06-24T10:33:09;101655.13;;;25.99;92.75
28448;BME280;15675;52.870;-1.416;2023-06-24T10:35:41;101652.63;;;25.96;93.28
28448;BME280;15675;52.870;-1.416;2023-06-24T10:38:10;101655.31;;;25.57;89.90
28448;BME280;15675;52.870;-1.416;2023-06-24T10:40:37;101660.31;;;25.44;92.10
28448;BME280;15675;52.870;-1.416;2023-06-24T10:43:28;101659.47;;;25.43;91.58
28448;BME280;15675;52.870;-1.416;2023-06-24T10:45:56;101659.72;;;24.74;92.71
28448;BME280;15675;52.870;-1.416;2023-06-24T10:48:23;101668.03;;;24.87;94.59
28448;BME280;15675;52.870;-1.416;2023-06-24T10:50:49;101662.47;;;24.49;94.95
28448;BME280;15675;52.870;-1.416;2023-06-24T10:53:15;101664.66;;;24.61;97.81
28448;BME280;15675;52.870;-1.416;2023-06-24T10:55:41;101668.00;;;24.66;100.00
28448;BME280;15675;52.870;-1.416;2023-06-24T10:58:11;101664.94;;;24.53;99.55
28448;BME280;15675;52.870;-1.416;2023-06-24T11:00:38;101660.94;;;24.65;100.00
28448;BME280;15675;52.870;-1.416;2023-06-24T11:03:09;101664.44;;;24.43;100.00
28448;BME280;15675;52.870;-1.416;2023-06-24T11:05:38;101664.50;;;24.66;100.00
28448;BME280;15675;52.870;-1.416;2023-06-24T11:08:05;101665.44;;;24.85;100.00
28448;BME280;15675;52.870;-1.416;2023-06-24T11:10:31;101660.88;;;25.09;100.00
28448;BME280;15675;52.870;-1.416;2023-06-24T11:12:56;101661.22;;;25.22;100.00
28448;BME280;15675;52.870;-1.416;2023-06-24T11:15:24;101656.97;;;25.59;100.00
28448;BME280;15675;52.870;-1.416;2023-06-24T11:17:51;101649.75;;;25.82;96.96
28448;BME280;15675;52.870;-1.416;2023-06-24T11:20:16;101655.06;;;26.03;96.71
28448;BME280;15675;52.870;-1.416;2023-06-24T11:22:43;101647.91;;;26.41;98.18
28448;BME280;15675;52.870;-1.416;2023-06-24T11:27:42;101646.22;;;26.21;86.98
28448;BME280;15675;52.870;-1.416;2023-06-24T11:30:08;101642.66;;;26.21;86.80
28448;BME280;15675;52.870;-1.416;2023-06-24T11:32:37;101649.59;;;25.66;85.67
28448;BME280;15675;52.870;-1.416;2023-06-24T11:35:08;101650.00;;;25.57;89.04
28448;BME280;15675;52.870;-1.416;2023-06-24T11:37:34;101645.53;;;25.97;89.76
28448;BME280;15675;52.870;-1.416;2023-06-24T11:40:07;101639.72;;;26.27;87.08
28448;BME280;15675;52.870;-1.416;2023-06-24T11:42:40;101637.88;;;26.10;83.61
28448;BME280;15675;52.870;-1.416;2023-06-24T11:45:08;101634.53;;;26.43;83.43
28448;BME280;15675;52.870;-1.416;2023-06-24T11:47:35;101640.34;;;26.51;82.20
28448;BME280;15675;52.870;-1.416;2023-06-24T11:50:02;101634.63;;;26.03;82.04
28448;BME280;15675;52.870;-1.416;2023-06-24T11:52:44;101636.31;;;25.85;84.15
28448;BME280;15675;52.870;-1.416;2023-06-24T11:55:20;101630.88;;;26.26;85.43
28448;BME280;15675;52.870;-1.416;2023-06-24T11:58:02;101632.44;;;26.49;84.02
28448;BME280;15675;52.870;-1.416;2023-06-24T12:00:39;101627.72;;;26.55;82.22
28448;BME280;15675;52.870;-1.416;2023-06-24T12:03:07;101625.50;;;26.09;81.31
28448;BME280;15675;52.870;-1.416;2023-06-24T12:05:35;101616.25;;;26.35;81.73
28448;BME280;15675;52.870;-1.416;2023-06-24T12:08:11;101624.13;;;26.56;81.37
28448;BME280;15675;52.870;-1.416;2023-06-24T12:10:39;101619.13;;;26.67;81.72
28448;BME280;15675;52.870;-1.416;2023-06-24T12:13:05;101614.63;;;26.32;80.36
28448;BME280;15675;52.870;-1.416;2023-06-24T12:15:32;101617.38;;;26.12;83.24
28448;BME280;15675;52.870;-1.416;2023-06-24T12:17:58;101618.09;;;26.15;81.43
28448;BME280;15675;52.870;-1.416;2023-06-24T12:20:25;101616.50;;;26.48;81.89
28448;BME280;15675;52.870;-1.416;2023-06-24T12:22:51;101611.59;;;26.40;79.93
28448;BME280;15675;52.870;-1.416;2023-06-24T12:25:17;101609.59;;;26.26;80.39
28448;BME280;15675;52.870;-1.416;2023-06-24T12:27:43;101599.13;;;26.77;80.13
28448;BME280;15675;52.870;-1.416;2023-06-24T12:30:10;101605.00;;;26.84;79.15
28448;BME280;15675;52.870;-1.416;2023-06-24T12:32:36;101601.78;;;26.95;76.74
28448;BME280;15675;52.870;-1.416;2023-06-24T12:35:02;101596.84;;;26.87;75.41
28448;BME280;15675;52.870;-1.416;2023-06-24T12:37:32;101603.28;;;26.46;76.70
28448;BME280;15675;52.870;-1.416;2023-06-24T12:40:01;101601.91;;;26.57;77.13
28448;BME280;15675;52.870;-1.416;2023-06-24T12:42:27;101595.34;;;26.64;74.97
28448;BME280;15675;52.870;-1.416;2023-06-24T12:44:53;101598.44;;;26.18;78.57
28448;BME280;15675;52.870;-1.416;2023-06-24T12:47:19;101590.97;;;26.98;80.21
28448;BME280;15675;52.870;-1.416;2023-06-24T12:49:44;101595.09;;;27.03;75.00
28448;BME280;15675;52.870;-1.416;2023-06-24T12:52:12;101595.19;;;26.67;75.81